Time;durP1;ratioP1;P1;durP2;ratioP2;P2;SDS_P1;SDS_P2;PMS_P1;PMS_P2;Temp;Humidity;BMP_temperature;BMP_pressure;BME280_temperature;BME280_humidity;BME280_pressure;Samples;Min_cycle;Max_cycle;Signal;HPM_P1;HPM_P2
2023/04/17 00:00:30;;;;;;;3.15;2.65;;;;;;;22.87;38.74;102459.00;5060446;27;97775;-79
2023/04/17 00:02:56;;;;;;;2.95;2.65;;;;;;;22.87;38.72;102456.25;5081911;27;96748;-78
2023/04/17 00:05:25;;;;;;;2.65;2.45;;;;;;;22.87;38.92;102468.09;5051785;27;97224;-78
2023/04/17 00:07:53;;;;;;;2.88;2.20;;;;;;;22.87;38.67;102456.25;5079233;27;96603;-78
2023/04/17 00:10:19;;;;;;;3.95;2.85;;;;;;;22.87;38.63;102459.88;5054575;27;99375;-78
2023/04/17 00:12:46;;;;;;;3.20;2.75;;;;;;;22.87;38.60;102457.13;5065837;27;97762;-78
2023/04/17 00:15:13;;;;;;;3.10;2.80;;;;;;;22.87;38.53;102459.88;5062771;27;97284;-78
2023/04/17 00:17:39;;;;;;;2.95;2.60;;;;;;;22.88;38.84;102455.25;5062531;27;96810;-78
2023/04/17 00:20:09;;;;;;;3.20;2.90;;;;;;;22.88;38.71;102456.13;5059559;27;96740;-79
2023/04/17 00:22:36;;;;;;;3.67;3.05;;;;;;;22.88;38.73;102458.00;5068807;27;96616;-78
2023/04/17 00:25:04;;;;;;;2.70;2.38;;;;;;;22.87;38.85;102451.66;5071923;27;96797;-78
2023/04/17 00:27:30;;;;;;;2.42;2.22;;;;;;;22.88;38.84;102447.03;5055704;27;97630;-78
2023/04/17 00:29:57;;;;;;;2.90;2.60;;;;;;;22.88;38.86;102444.28;5054194;27;99466;-78
2023/04/17 00:32:23;;;;;;;2.50;2.25;;;;;;;22.87;38.69;102457.13;5064837;27;100323;-78
2023/04/17 00:34:50;;;;;;;3.15;2.50;;;;;;;22.87;38.64;102451.66;5079967;27;97051;-77
2023/04/17 00:37:21;;;;;;;3.03;2.50;;;;;;;22.88;38.54;102452.50;5066718;27;96815;-78
2023/04/17 00:39:47;;;;;;;3.75;2.50;;;;;;;22.88;38.64;102447.91;5065732;27;97233;-78
2023/04/17 00:42:14;;;;;;;2.95;2.65;;;;;;;22.87;38.79;102446.16;5059803;27;97198;-78
2023/04/17 00:44:40;;;;;;;3.88;3.03;;;;;;;22.89;38.85;102448.75;5059388;27;96659;-77
2023/04/17 00:47:07;;;;;;;3.40;2.80;;;;;;;22.89;38.77;102448.75;5063110;27;96950;-78
2023/04/17 00:49:34;;;;;;;3.15;2.67;;;;;;;22.88;38.91;102453.38;5065019;27;97176;-78
2023/04/17 00:52:02;;;;;;;2.95;2.65;;;;;;;22.87;38.84;102446.16;5072303;27;96772;-78
2023/04/17 00:54:30;;;;;;;2.80;2.60;;;;;;;22.87;38.64;102440.69;5069597;27;96777;-78
2023/04/17 00:56:59;;;;;;;3.00;2.75;;;;;;;22.88;38.73;102442.41;5060926;27;96818;-78
2023/04/17 00:59:27;;;;;;;2.78;2.50;;;;;;;22.88;38.71;102438.81;5053616;27;98025;-78
2023/04/17 01:01:53;;;;;;;3.65;3.00;;;;;;;22.88;38.53;102441.56;5061126;27;96791;-79
2023/04/17 01:04:20;;;;;;;3.13;2.83;;;;;;;22.88;38.73;102439.69;5065833;27;96899;-78
2023/04/17 01:06:47;;;;;;;3.00;2.70;;;;;;;22.88;38.73;102433.34;5072118;27;96633;-77
2023/04/17 01:09:13;;;;;;;2.95;2.63;;;;;;;22.88;38.55;102438.81;5070466;27;97172;-78
2023/04/17 01:11:40;;;;;;;3.00;2.63;;;;;;;22.88;38.54;102436.06;5070774;27;97231;-78
2023/04/17 01:14:06;;;;;;;2.67;2.45;;;;;;;22.88;38.58;102436.06;5069996;27;96953;-78
2023/04/17 01:16:34;;;;;;;2.80;2.60;;;;;;;22.87;38.89;102435.22;5071454;27;98058;-78
2023/04/17 01:19:00;;;;;;;2.42;2.22;;;;;;;22.87;38.54;102432.47;5071921;27;97912;-78
2023/04/17 01:21:27;;;;;;;3.08;2.78;;;;;;;22.89;38.66;102440.53;5052844;27;99178;-78
2023/04/17 01:23:54;;;;;;;2.85;2.53;;;;;;;22.88;38.75;102433.34;5071543;27;97012;-78
2023/04/17 01:26:30;;;;;;;3.22;2.92;;;;;;;22.88;38.58;102436.06;5070757;27;97140;-78
2023/04/17 01:28:58;;;;;;;3.13;2.83;;;;;;;22.88;38.48;102434.19;5070111;27;96975;-78
2023/04/17 01:31:26;;;;;;;3.22;2.70;;;;;;;22.89;38.45;102437.81;5070609;27;99412;-79
2023/04/17 01:33:54;;;;;;;3.05;2.33;;;;;;;22.87;38.61;102435.22;5061663;27;96723;-79
2023/04/17 01:36:20;;;;;;;2.65;2.45;;;;;;;22.88;38.59;102436.06;5080879;27;96871;-78
2023/04/17 01:38:47;;;;;;;3.13;2.83;;;;;;;22.87;38.57;102434.34;5070177;27;99285;-78
2023/04/17 01:41:14;;;;;;;3.03;2.70;;;;;;;22.88;38.76;102441.56;5052091;27;100144;-78
2023/04/17 01:43:46;;;;;;;3.30;2.88;;;;;;;22.88;38.73;102445.16;5067135;27;96827;-78
2023/04/17 01:46:12;;;;;;;3.00;2.70;;;;;;;22.87;38.40;102437.94;5071767;27;96775;-78
2023/04/17 01:48:39;;;;;;;3.03;2.50;;;;;;;22.87;38.64;102437.94;5049612;27;99947;-78
2023/04/17 01:51:06;;;;;;;3.17;2.67;;;;;;;22.88;38.51;102438.81;5062850;27;96623;-79
2023/04/17 01:53:33;;;;;;;3.40;2.80;;;;;;;22.88;38.57;102438.81;5065835;27;97048;-78
2023/04/17 01:56:00;;;;;;;3.08;2.60;;;;;;;22.88;38.58;102441.56;5067209;27;97147;-78
2023/04/17 01:58:28;;;;;;;3.13;2.83;;;;;;;22.87;38.34;102439.81;5061090;27;100856;-78
2023/04/17 02:00:54;;;;;;;2.80;2.60;;;;;;;22.87;38.68;102442.56;5070122;27;98985;-78
2023/04/17 02:03:23;;;;;;;2.97;2.67;;;;;;;22.87;38.48;102440.69;5071362;27;96558;-78
2023/04/17 02:05:52;;;;;;;2.50;2.30;;;;;;;22.87;38.86;102437.09;5062181;27;96750;-78
2023/04/17 02:08:18;;;;;;;3.13;2.83;;;;;;;22.88;38.48;102441.56;5049626;27;99398;-78
2023/04/17 02:10:45;;;;;;;2.78;2.58;;;;;;;22.88;38.61;102444.28;5061453;27;98132;-77
2023/04/17 02:13:11;;;;;;;3.67;2.78;;;;;;;22.87;38.67;102445.31;5070241;27;96677;-78
2023/04/17 02:15:40;;;;;;;3.10;2.80;;;;;;;22.87;38.53;102454.38;5056050;27;96988;-78
2023/04/17 02:18:07;;;;;;;3.10;2.80;;;;;;;22.87;38.46;102440.69;5069806;27;98660;-78
2023/04/17 02:20:35;;;;;;;3.47;2.75;;;;;;;22.87;38.50;102442.56;5056396;27;96784;-78
2023/04/17 02:23:03;;;;;;;3.28;2.72;;;;;;;22.87;38.34;102454.38;5070932;27;96869;-78
2023/04/17 02:25:30;;;;;;;3.45;2.78;;;;;;;22.87;38.37;102445.31;5066642;27;96728;-79
2023/04/17 02:27:57;;;;;;;3.17;2.78;;;;;;;22.87;38.77;102446.16;5061541;27;96741;-78
2023/04/17 02:30:26;;;;;;;2.97;2.50;;;;;;;22.88;38.46;102458.84;5057316;27;97619;-78
2023/04/17 02:32:55;;;;;;;3.50;2.80;;;;;;;22.88;38.45;102455.25;5070128;27;96704;-78
2023/04/17 02:35:27;;;;;;;2.90;2.60;;;;;;;22.88;38.29;102455.25;5036556;27;97474;-78
2023/04/17 02:37:55;;;;;;;4.10;2.78;;;;;;;22.87;38.67;102459.88;5068572;27;100442;-78
2023/04/17 02:40:22;;;;;;;2.97;2.70;;;;;;;22.87;38.72;102451.66;5063512;27;98501;-77
2023/04/17 02:42:54;;;;;;;3.72;2.80;;;;;;;22.85;38.26;102447.34;5077300;27;96771;-78
2023/04/17 02:45:20;;;;;;;2.88;2.50;;;;;;;22.87;38.73;102445.31;5058212;27;99368;-78
2023/04/17 02:47:47;;;;;;;3.55;2.70;;;;;;;22.87;38.80;102451.66;5069719;27;99219;-78
2023/04/17 02:50:15;;;;;;;2.97;2.67;;;;;;;22.87;38.57;102454.38;5055478;27;101200;-79
2023/04/17 02:53:00;;;;;;;;;;;;;;;22.83;38.53;102458.44;5055223;27;97203;-78
2023/04/17 02:55:27;;;;;;;3.42;2.78;;;;;;;22.83;38.62;102453.81;5063613;27;96750;-78
2023/04/17 02:57:53;;;;;;;3.00;2.70;;;;;;;22.83;38.79;102459.31;5066172;27;99389;-78
2023/04/17 03:00:21;;;;;;;3.22;2.65;;;;;;;22.83;38.66;102451.09;5059514;27;98935;-78
2023/04/17 03:02:48;;;;;;;3.55;3.13;;;;;;;22.85;38.47;102458.28;5065623;27;97449;-78
2023/04/17 03:05:19;;;;;;;3.08;2.80;;;;;;;22.86;38.54;102462.75;5069320;27;96677;-78
2023/04/17 03:07:46;;;;;;;3.15;2.85;;;;;;;22.86;38.41;102466.38;5054911;27;99605;-79
2023/04/17 03:10:13;;;;;;;3.22;2.90;;;;;;;22.85;38.77;102461.03;5043248;27;99781;-78
2023/04/17 03:12:39;;;;;;;3.63;2.88;;;;;;;22.85;38.74;102461.03;5052083;27;96916;-78
2023/04/17 03:15:07;;;;;;;3.15;2.60;;;;;;;22.86;38.56;102465.50;5072682;27;97165;-78
2023/04/17 03:17:34;;;;;;;3.30;3.00;;;;;;;22.85;38.48;102472.84;5066845;27;99303;-78
2023/04/17 03:20:01;;;;;;;2.90;2.60;;;;;;;22.86;38.55;102468.25;5069284;27;98359;-78
2023/04/17 03:22:27;;;;;;;3.22;2.75;;;;;;;22.85;38.67;102475.59;5058092;27;96890;-78
2023/04/17 03:24:54;;;;;;;3.45;2.63;;;;;;;22.86;38.68;102476.47;5060589;27;96976;-78
2023/04/17 03:27:24;;;;;;;2.90;2.60;;;;;;;22.86;38.55;102473.72;5071658;27;100622;-79
2023/04/17 03:29:55;;;;;;;2.85;2.60;;;;;;;22.87;38.77;102472.69;5058484;27;98575;-78
2023/04/17 03:32:23;;;;;;;3.05;2.65;;;;;;;22.86;38.70;102468.25;5065229;27;97022;-79
2023/04/17 03:34:50;;;;;;;3.30;3.00;;;;;;;22.85;38.79;102472.84;5083823;27;96992;-79
2023/04/17 03:37:17;;;;;;;3.08;2.70;;;;;;;22.85;38.49;102464.63;5065804;27;100359;-79
2023/04/17 03:39:43;;;;;;;2.75;2.55;;;;;;;22.87;38.30;102472.69;5073255;27;98671;-78
2023/04/17 03:42:13;;;;;;;3.05;2.72;;;;;;;22.85;38.77;102464.63;5064370;27;96735;-78
2023/04/17 03:44:40;;;;;;;3.38;3.08;;;;;;;22.86;38.98;102470.97;5052264;27;96603;-79
2023/04/17 03:47:06;;;;;;;3.35;2.60;;;;;;;22.86;38.27;102463.63;5069048;27;100908;-77
2023/04/17 03:49:33;;;;;;;2.97;2.63;;;;;;;22.85;38.75;102467.38;5067183;27;98443;-78
2023/04/17 03:52:02;;;;;;;2.70;2.50;;;;;;;22.86;38.47;102460.88;5064622;27;97395;-78
2023/04/17 03:54:34;;;;;;;2.53;2.33;;;;;;;22.86;38.49;102460.88;5066552;27;96607;-78
2023/04/17 03:57:02;;;;;;;2.97;2.67;;;;;;;22.86;38.52;102457.28;5071806;27;96912;-78
2023/04/17 03:59:30;;;;;;;3.00;2.70;;;;;;;22.86;38.68;102462.75;5055362;27;100373;-78
2023/04/17 04:01:57;;;;;;;2.72;2.53;;;;;;;22.86;38.71;102463.63;5071767;27;96864;-78
2023/04/17 04:04:26;;;;;;;3.67;2.80;;;;;;;22.86;38.52;102471.84;5071321;27;97987;-78
2023/04/17 04:07:02;;;;;;;3.45;2.78;;;;;;;22.85;38.59;102472.84;5055451;27;100447;-78
2023/04/17 04:09:29;;;;;;;3.05;2.75;;;;;;;22.85;38.83;102467.38;5069775;27;99248;-78
2023/04/17 04:11:58;;;;;;;3.00;2.70;;;;;;;22.86;38.66;102471.84;5071969;27;96985;-79
2023/04/17 04:14:25;;;;;;;3.03;2.70;;;;;;;22.85;38.48;102470.13;5071515;27;96633;-78
2023/04/17 04:16:53;;;;;;;3.00;2.70;;;;;;;22.86;38.41;102465.50;5060505;27;97058;-78
2023/04/17 04:19:19;;;;;;;3.78;3.00;;;;;;;22.86;38.66;102470.97;5070892;27;96888;-78
2023/04/17 04:21:46;;;;;;;3.00;2.70;;;;;;;22.86;38.66;102462.75;5069995;27;97073;-78
2023/04/17 04:24:13;;;;;;;2.88;2.50;;;;;;;22.85;38.72;102467.38;5060707;27;96869;-78
2023/04/17 04:26:42;;;;;;;3.15;2.50;;;;;;;22.86;38.82;102473.72;5041181;27;99602;-78
2023/04/17 04:29:10;;;;;;;3.20;2.83;;;;;;;22.86;38.49;102473.72;5059450;27;100226;-77
2023/04/17 04:31:51;;;;;;;2.78;2.55;;;;;;;22.85;38.44;102481.06;5057199;27;96751;-78
2023/04/17 04:34:24;;;;;;;3.03;2.80;;;;;;;22.84;38.63;102476.59;5062379;27;96831;-78
2023/04/17 04:36:51;;;;;;;3.38;3.08;;;;;;;22.85;38.66;102480.22;5068753;27;99520;-78
2023/04/17 04:39:29;;;;;;;3.10;2.80;;;;;;;22.85;38.31;102482.94;5056128;27;99128;-78
2023/04/17 04:42:04;;;;;;;3.08;2.78;;;;;;;22.86;38.25;102487.41;5064472;27;97127;-78
2023/04/17 04:44:39;;;;;;;2.88;2.55;;;;;;;22.85;38.46;102493.91;5048268;27;96638;-78
2023/04/17 04:47:07;;;;;;;3.03;2.78;;;;;;;22.85;38.31;102488.44;5062008;27;99951;-78
2023/04/17 04:49:35;;;;;;;3.05;2.63;;;;;;;22.86;38.53;102503.84;5075108;27;98863;-78
2023/04/17 04:52:01;;;;;;;2.80;2.50;;;;;;;22.85;38.65;102497.50;5058388;27;96884;-78
2023/04/17 04:54:31;;;;;;;3.00;2.70;;;;;;;22.85;38.48;102496.66;5058498;27;96788;-78
2023/04/17 04:57:00;;;;;;;3.10;2.80;;;;;;;22.85;38.51;102504.88;5062624;27;98622;-78
2023/04/17 04:59:27;;;;;;;3.88;3.00;;;;;;;22.85;38.44;102496.66;5064051;27;99522;-78
2023/04/17 05:02:13;;;;;;;2.75;2.40;;;;;;;22.83;38.49;102494.91;5062632;27;97455;-78
2023/04/17 05:04:40;;;;;;;2.97;2.67;;;;;;;22.85;38.43;102502.13;5057890;27;97145;-78
2023/04/17 05:07:07;;;;;;;3.33;3.00;;;;;;;22.85;38.58;102503.00;5057580;27;100590;-78
2023/04/17 05:09:35;;;;;;;3.38;3.00;;;;;;;22.85;38.55;102499.38;5066685;27;99086;-78
2023/04/17 05:12:03;;;;;;;3.40;2.72;;;;;;;22.85;38.31;102504.88;5070226;27;96962;-78
2023/04/17 05:14:29;;;;;;;4.10;2.88;;;;;;;22.85;38.61;102513.09;5067505;27;96722;-78
2023/04/17 05:16:56;;;;;;;3.03;2.72;;;;;;;22.84;38.58;102512.22;5068954;27;98842;-78
2023/04/17 05:19:23;;;;;;;3.53;2.95;;;;;;;22.83;38.51;102508.63;5064865;27;99913;-77
2023/04/17 05:21:54;;;;;;;3.13;2.83;;;;;;;22.85;38.85;102510.34;5070042;27;96691;-78
2023/04/17 05:24:22;;;;;;;3.65;3.08;;;;;;;22.85;38.31;102519.44;5056908;27;97589;-78
2023/04/17 05:26:49;;;;;;;3.00;2.70;;;;;;;22.84;38.81;102512.22;5057326;27;98915;-78
2023/04/17 05:29:16;;;;;;;2.80;2.45;;;;;;;22.84;38.38;102517.69;5057502;27;100661;-78
2023/04/17 05:31:43;;;;;;;3.58;3.20;;;;;;;22.85;38.41;102524.03;5071185;27;98383;-78
2023/04/17 05:34:22;;;;;;;3.85;3.20;;;;;;;22.84;38.56;102520.44;5055002;27;96827;-78
2023/04/17 05:36:49;;;;;;;3.05;2.58;;;;;;;22.85;38.22;102521.31;5053221;27;98857;-78
2023/04/17 05:39:15;;;;;;;3.10;2.80;;;;;;;22.85;38.14;102524.03;5061037;27;96843;-78
2023/04/17 05:41:48;;;;;;;2.80;2.50;;;;;;;22.85;38.42;102526.78;5064773;27;96674;-79
2023/04/17 05:44:16;;;;;;;3.23;2.90;;;;;;;22.84;38.60;102525.91;5065463;27;96981;-79
2023/04/17 05:46:42;;;;;;;3.25;2.75;;;;;;;22.85;38.72;102524.91;5066500;27;100615;-78
2023/04/17 05:49:10;;;;;;;3.13;2.65;;;;;;;22.85;38.25;102526.78;5063185;27;97109;-78
2023/04/17 05:51:37;;;;;;;2.65;2.45;;;;;;;22.85;38.53;102526.78;5066547;27;96757;-78
2023/04/17 05:54:04;;;;;;;3.03;2.72;;;;;;;22.85;38.32;102530.38;5064216;27;96905;-78
2023/04/17 05:56:31;;;;;;;3.13;2.80;;;;;;;22.86;38.40;102529.38;5071234;27;99403;-78
2023/04/17 05:58:58;;;;;;;3.25;2.92;;;;;;;22.85;38.46;102529.53;5072285;27;96940;-78
2023/04/17 06:01:28;;;;;;;3.50;3.10;;;;;;;22.85;38.22;102526.78;5065044;27;97084;-78
2023/04/17 06:03:55;;;;;;;2.97;2.67;;;;;;;22.84;38.51;102528.66;5052059;27;96803;-78
2023/04/17 06:06:25;;;;;;;3.28;2.97;;;;;;;22.85;38.71;102532.25;5063052;27;98786;-78
2023/04/17 06:08:53;;;;;;;3.88;3.20;;;;;;;22.85;38.41;102533.13;5066546;27;96877;-78
2023/04/17 06:11:22;;;;;;;3.47;2.92;;;;;;;22.85;38.36;102533.13;5051924;27;96624;-78
2023/04/17 06:13:48;;;;;;;2.92;2.65;;;;;;;22.85;38.52;102530.38;5048130;27;97263;-78
2023/04/17 06:16:16;;;;;;;3.17;2.83;;;;;;;22.85;38.24;102533.13;5061953;27;99381;-78
2023/04/17 06:18:46;;;;;;;3.03;2.72;;;;;;;22.85;38.24;102538.59;5065525;27;99067;-79
2023/04/17 06:21:12;;;;;;;3.03;2.72;;;;;;;22.84;38.47;102536.88;5068230;27;96889;-79
2023/04/17 06:23:39;;;;;;;2.97;2.67;;;;;;;22.85;38.29;102535.84;5067832;27;96952;-78
2023/04/17 06:26:06;;;;;;;3.50;3.20;;;;;;;22.85;38.44;102541.34;5072422;27;97452;-79
2023/04/17 06:28:33;;;;;;;3.20;2.88;;;;;;;22.85;38.46;102551.44;5070560;27;101099;-78
2023/04/17 06:31:00;;;;;;;2.97;2.58;;;;;;;22.85;38.40;102554.19;5071388;27;96704;-78
2023/04/17 06:33:26;;;;;;;3.08;2.78;;;;;;;22.84;37.98;102550.56;5069953;27;96869;-79
2023/04/17 06:35:54;;;;;;;3.00;2.70;;;;;;;22.84;38.44;102553.31;5078660;27;99132;-79
2023/04/17 06:38:28;;;;;;;2.92;2.63;;;;;;;22.84;38.28;102558.78;5071248;27;99380;-80
2023/04/17 06:40:55;;;;;;;3.00;2.70;;;;;;;22.85;38.68;102565.13;5063784;27;96706;-79
2023/04/17 06:43:21;;;;;;;4.57;3.30;;;;;;;22.84;38.26;102564.28;5062316;27;96880;-79
2023/04/17 06:45:48;;;;;;;3.53;3.03;;;;;;;22.84;38.36;102569.75;5068150;27;98324;-79
2023/04/17 06:48:14;;;;;;;3.20;2.90;;;;;;;22.83;38.44;102570.75;5082578;27;97589;-79
2023/04/17 06:50:41;;;;;;;3.88;3.00;;;;;;;22.84;38.61;102569.75;5053107;27;96774;-79
2023/04/17 06:53:08;;;;;;;3.08;2.78;;;;;;;22.82;38.32;102567.16;5069524;27;96770;-79
2023/04/17 06:55:34;;;;;;;3.17;2.88;;;;;;;22.84;38.48;102577.97;5073295;27;97892;-79
2023/04/17 06:58:01;;;;;;;3.20;2.90;;;;;;;22.84;38.54;102569.75;5068379;27;96983;-79
2023/04/17 07:00:27;;;;;;;3.13;2.65;;;;;;;22.83;38.31;102571.63;5080691;27;96686;-78
2023/04/17 07:02:54;;;;;;;3.10;2.70;;;;;;;22.83;38.31;102571.63;5056878;27;96730;-79
2023/04/17 07:05:20;;;;;;;3.40;3.10;;;;;;;22.83;38.42;102574.38;5053062;27;97492;-78
2023/04/17 07:07:47;;;;;;;3.15;2.85;;;;;;;22.83;38.26;102576.25;5054155;27;96793;-78
2023/04/17 07:10:14;;;;;;;3.20;2.70;;;;;;;22.82;38.31;102583.59;5054560;27;97568;-79
2023/04/17 07:12:41;;;;;;;3.53;3.17;;;;;;;22.83;38.17;102574.38;5071583;27;96927;-78
2023/04/17 07:15:08;;;;;;;3.00;2.70;;;;;;;22.83;38.22;102582.59;5062266;27;97758;-79
2023/04/17 07:17:35;;;;;;;3.65;3.13;;;;;;;22.83;38.47;102589.94;5054581;27;97472;-78
2023/04/17 07:20:04;;;;;;;3.30;3.00;;;;;;;22.83;38.23;102596.28;5065936;27;96734;-78
2023/04/17 07:22:30;;;;;;;3.35;3.05;;;;;;;22.83;38.40;102593.53;5054457;27;97387;-79
2023/04/17 07:24:57;;;;;;;3.38;3.08;;;;;;;22.82;38.21;102588.22;5053520;27;97087;-78
2023/04/17 07:27:23;;;;;;;3.40;3.05;;;;;;;22.82;38.66;102597.28;5065767;27;97352;-79
2023/04/17 07:29:55;;;;;;;3.70;3.03;;;;;;;22.83;38.23;102600.91;5068226;27;96690;-79
2023/04/17 07:32:24;;;;;;;3.55;3.20;;;;;;;22.83;38.25;102600.91;5069296;27;96937;-78
2023/04/17 07:34:51;;;;;;;4.07;3.20;;;;;;;22.82;38.49;102605.50;5067070;27;96858;-78
2023/04/17 07:37:18;;;;;;;4.28;3.05;;;;;;;22.81;38.26;102605.66;5062979;27;97553;-79
2023/04/17 07:39:48;;;;;;;3.00;2.70;;;;;;;22.82;38.55;102610.13;5071015;27;96718;-79
2023/04/17 07:42:15;;;;;;;3.30;3.00;;;;;;;22.82;38.43;102612.88;5060932;27;96746;-78
2023/04/17 07:44:41;;;;;;;3.08;2.78;;;;;;;22.81;38.49;102606.53;5073230;27;97043;-79
2023/04/17 07:47:08;;;;;;;4.30;3.45;;;;;;;22.81;38.38;102603.78;5061652;27;97582;-78
2023/04/17 07:49:35;;;;;;;3.65;2.90;;;;;;;22.81;38.12;102609.25;5072601;27;96714;-78
2023/04/17 07:52:01;;;;;;;3.80;3.13;;;;;;;22.81;38.09;102612.00;5052930;27;96661;-78
2023/04/17 07:54:30;;;;;;;3.30;3.00;;;;;;;22.81;38.26;102601.03;5053458;27;96687;-78
2023/04/17 07:57:01;;;;;;;3.15;2.85;;;;;;;22.81;38.41;102605.66;5053353;27;97996;-79
2023/04/17 07:59:28;;;;;;;3.90;3.30;;;;;;;22.81;38.26;102617.47;5069234;27;96818;-78
2023/04/17 08:01:56;;;;;;;3.53;3.22;;;;;;;22.81;38.51;102613.88;5074321;27;96737;-78
2023/04/17 08:04:24;;;;;;;3.28;2.92;;;;;;;22.81;38.29;102611.13;5070417;27;99514;-78
2023/04/17 08:06:51;;;;;;;3.13;2.78;;;;;;;22.81;37.88;102616.63;5064232;27;97685;-78
2023/04/17 08:09:20;;;;;;;3.38;3.08;;;;;;;22.81;38.58;102612.00;5069510;27;96842;-78
2023/04/17 08:11:46;;;;;;;3.72;3.00;;;;;;;22.82;38.33;102618.34;5073422;27;96923;-78
2023/04/17 08:14:23;;;;;;;3.15;2.85;;;;;;;22.80;38.43;102620.38;5056331;27;97128;-78
2023/04/17 08:16:50;;;;;;;3.67;3.28;;;;;;;22.80;38.39;102623.09;5072997;27;96687;-78
2023/04/17 08:19:16;;;;;;;3.55;3.08;;;;;;;22.81;38.68;102619.34;5069859;27;96775;-79
2023/04/17 08:21:46;;;;;;;3.63;3.33;;;;;;;22.80;38.31;102618.50;5059797;27;97346;-78
2023/04/17 08:24:13;;;;;;;4.03;3.45;;;;;;;22.80;38.54;102626.72;5065048;27;96854;-78
2023/04/17 08:26:40;;;;;;;3.63;3.28;;;;;;;22.80;38.25;102621.22;5066202;27;96995;-78
2023/04/17 08:29:07;;;;;;;4.45;3.00;;;;;;;22.80;38.49;102625.84;5066059;27;96746;-79
2023/04/17 08:31:35;;;;;;;3.25;2.90;;;;;;;22.80;38.42;102621.22;5066430;27;96950;-79
2023/04/17 08:34:02;;;;;;;3.50;3.05;;;;;;;22.80;38.46;102617.63;5064781;27;99496;-79
2023/04/17 08:36:40;;;;;;;3.65;3.35;;;;;;;22.80;38.46;102617.63;5067480;27;96716;-78
2023/04/17 08:39:08;;;;;;;3.65;3.30;;;;;;;22.79;38.42;102619.47;5061386;27;96661;-79
2023/04/17 08:41:43;;;;;;;3.45;3.10;;;;;;;22.81;38.51;102622.09;5068884;27;97142;-79
2023/04/17 08:44:10;;;;;;;4.30;3.30;;;;;;;22.80;38.27;102626.72;5071321;27;98279;-79
2023/04/17 08:46:37;;;;;;;3.80;3.15;;;;;;;22.80;38.30;102629.44;5064159;27;96676;-79
2023/04/17 08:49:04;;;;;;;3.60;2.80;;;;;;;22.81;38.26;102627.56;5073870;27;96699;-79
2023/04/17 08:51:31;;;;;;;3.65;3.35;;;;;;;22.82;38.29;102632.03;5067695;27;97547;-78
2023/04/17 08:53:58;;;;;;;3.83;3.42;;;;;;;22.81;38.31;102628.44;5051329;27;97747;-78
2023/04/17 08:56:24;;;;;;;3.78;3.38;;;;;;;22.81;38.55;102628.44;5053016;27;96727;-79
2023/04/17 08:58:51;;;;;;;3.53;3.20;;;;;;;22.83;38.00;102628.28;5064236;27;96717;-78
2023/04/17 09:01:19;;;;;;;3.70;3.35;;;;;;;22.82;38.42;102623.81;5068255;27;96867;-78
2023/04/17 09:03:47;;;;;;;3.53;3.03;;;;;;;22.82;38.54;102627.44;5063319;27;96617;-79
2023/04/17 09:06:14;;;;;;;3.78;3.10;;;;;;;22.83;38.20;102634.63;5069395;27;97385;-78
2023/04/17 09:08:56;;;;;;;3.35;3.05;;;;;;;22.83;38.40;102623.69;5071183;27;98047;-78
2023/04/17 09:11:24;;;;;;;4.50;3.38;;;;;;;22.83;38.47;102633.78;5072069;27;97199;-78
2023/04/17 09:13:51;;;;;;;3.45;3.15;;;;;;;22.83;38.22;102631.03;5070971;27;98381;-79
2023/04/17 09:16:20;;;;;;;3.38;2.92;;;;;;;22.85;38.41;102630.88;5071675;27;99578;-79
2023/04/17 09:18:48;;;;;;;3.65;3.17;;;;;;;22.84;38.26;102630.03;5071647;27;97100;-78
2023/04/17 09:21:19;;;;;;;3.30;3.00;;;;;;;22.85;38.12;102623.53;5062941;27;96799;-78
2023/04/17 09:23:48;;;;;;;4.07;3.47;;;;;;;22.85;38.00;102631.75;5065941;27;97451;-78
2023/04/17 09:26:26;;;;;;;3.65;3.35;;;;;;;22.85;38.16;102642.72;5071145;27;97005;-79
2023/04/17 09:29:10;;;;;;;3.42;3.13;;;;;;;22.86;38.25;102640.84;5059941;27;97111;-78
2023/04/17 09:31:41;;;;;;;3.55;3.17;;;;;;;22.85;38.13;102631.75;5069938;27;96803;-78
2023/04/17 09:34:14;;;;;;;3.30;3.00;;;;;;;22.85;38.34;102634.50;5070944;27;97518;-79
2023/04/17 09:36:42;;;;;;;3.30;3.00;;;;;;;22.86;38.35;102632.63;5067815;27;97868;-79
2023/04/17 09:39:22;;;;;;;3.65;3.30;;;;;;;22.86;38.24;102643.56;5070402;27;96767;-79
2023/04/17 09:41:50;;;;;;;3.47;3.17;;;;;;;22.86;38.16;102632.63;5049775;27;97334;-78
2023/04/17 09:44:27;;;;;;;4.22;3.38;;;;;;;22.86;38.06;102625.25;5060189;27;97672;-79
2023/04/17 09:46:54;;;;;;;4.40;3.42;;;;;;;22.86;38.41;102621.66;5065343;27;99159;-79
2023/04/17 09:49:54;;;;;;;3.60;3.30;;;;;;;22.86;38.21;102628.00;5070996;27;96741;-79
2023/04/17 09:52:22;;;;;;;3.92;3.42;;;;;;;22.85;38.26;102628.13;5065065;27;96923;-79
2023/04/17 09:54:52;;;;;;;3.85;3.28;;;;;;;22.85;38.19;102631.75;5062899;27;97636;-78
2023/04/17 09:57:19;;;;;;;3.90;3.28;;;;;;;22.86;38.10;102632.63;5072262;27;96712;-79
2023/04/17 10:02:03;;;;;;;4.28;3.45;;;;;;;22.76;38.23;102641.66;5014681;28;97265;-81
2023/04/17 10:04:29;;;;;;;6.35;3.40;;;;;;;22.71;38.30;102634.91;5014288;28;96886;-82
2023/04/17 10:06:56;;;;;;;4.55;3.28;;;;;;;22.69;38.68;102636.91;5013616;28;96925;-81
2023/04/17 10:09:23;;;;;;;5.45;3.50;;;;;;;22.68;38.66;102638.78;4997003;28;98382;-82
2023/04/17 10:11:51;;;;;;;5.60;3.50;;;;;;;22.70;38.34;102633.16;4987682;28;96914;-82
2023/04/17 10:14:25;;;;;;;3.65;3.22;;;;;;;22.70;38.17;102634.03;4993224;28;96940;-82
2023/04/17 10:16:52;;;;;;;4.90;3.80;;;;;;;22.70;38.46;102625.81;5005594;28;99812;-81
2023/04/17 10:19:22;;;;;;;5.57;3.97;;;;;;;22.76;38.59;102627.09;4982523;28;98856;-82
2023/04/17 10:22:14;;;;;;;6.05;3.63;;;;;;;22.77;38.61;102635.19;4992472;28;96725;-81
2023/04/17 10:24:41;;;;;;;5.00;3.53;;;;;;;22.77;38.32;102637.91;5001747;28;97211;-84
2023/04/17 10:27:40;;;;;;;3.78;3.40;;;;;;;22.80;38.18;102631.31;4998447;28;100166;-81
2023/04/17 10:30:11;;;;;;;3.58;3.28;;;;;;;22.78;38.15;102625.94;4993120;28;100596;-82
2023/04/17 10:32:40;;;;;;;3.60;3.30;;;;;;;22.81;38.23;102633.03;4997863;28;96975;-81
2023/04/17 10:35:16;;;;;;;4.53;3.95;;;;;;;22.82;38.55;102626.56;5004267;28;96696;-81
2023/04/17 10:37:46;;;;;;;4.57;3.58;;;;;;;22.82;38.36;102627.44;4980473;28;99921;-81
2023/04/17 10:40:24;;;;;;;6.47;3.40;;;;;;;22.85;38.49;102625.41;4999073;28;96926;-82
2023/04/17 10:43:11;;;;;;;4.63;4.00;;;;;;;22.85;38.28;102622.66;5003200;28;97917;-81
2023/04/17 10:46:03;;;;;;;4.18;3.78;;;;;;;22.85;38.23;102622.66;5000518;28;96733;-81
2023/04/17 10:48:36;;;;;;;4.32;3.92;;;;;;;22.84;38.61;102608.09;5006024;28;100777;-82
2023/04/17 10:51:25;;;;;;;4.03;3.50;;;;;;;22.85;38.29;102615.31;5008712;28;97744;-81
2023/04/17 10:53:56;;;;;;;4.95;3.83;;;;;;;22.86;38.22;102617.03;5006262;28;96836;-80
2023/04/17 10:56:26;;;;;;;4.40;3.75;;;;;;;22.85;38.43;102609.84;5009141;28;96857;-81
2023/04/17 10:59:01;;;;;;;3.80;3.50;;;;;;;22.87;38.23;102615.16;5004585;28;97179;-80
2023/04/17 11:01:38;;;;;;;4.20;3.72;;;;;;;22.86;38.16;102606.09;4999933;28;97228;-79
2023/04/17 11:04:06;;;;;;;4.10;3.70;;;;;;;22.87;38.41;102618.78;5004670;28;97883;-80
2023/04/17 11:06:38;;;;;;;4.00;3.60;;;;;;;22.88;38.25;102608.66;4993141;28;97310;-79
2023/04/17 11:09:09;;;;;;;6.43;4.13;;;;;;;22.90;38.14;102614.88;5005572;28;96758;-80
2023/04/17 11:11:41;;;;;;;4.05;3.63;;;;;;;22.88;38.41;102617.75;4997481;28;99131;-80
2023/04/17 11:14:12;;;;;;;4.95;4.10;;;;;;;22.90;38.34;102609.38;4996209;28;96682;-80
2023/04/17 11:16:42;;;;;;;5.70;4.20;;;;;;;22.90;38.10;102606.66;4996221;28;96814;-81
2023/04/17 11:19:10;;;;;;;6.18;4.50;;;;;;;22.90;38.51;102607.50;4994392;28;98220;-80
2023/04/17 11:21:38;;;;;;;4.10;3.70;;;;;;;22.90;38.23;102609.38;4995229;28;97597;-79
2023/04/17 11:24:05;;;;;;;4.22;3.70;;;;;;;22.90;38.02;102602.03;4983805;28;96834;-79
2023/04/17 11:26:46;;;;;;;4.32;3.92;;;;;;;22.91;38.17;102605.63;4993269;28;96786;-79
2023/04/17 11:29:14;;;;;;;6.90;4.18;;;;;;;22.90;38.30;102592.94;4987952;28;97025;-79
2023/04/17 11:31:41;;;;;;;6.82;3.70;;;;;;;22.91;38.02;102602.91;4988784;28;97283;-79
2023/04/17 11:34:10;;;;;;;4.50;4.05;;;;;;;22.91;38.47;102600.16;4985066;28;96846;-79